Time;durP1;ratioP1;P1;durP2;ratioP2;P2;SDS_P1;SDS_P2;PMS_P1;PMS_P2;Temp;Humidity;BMP_temperature;BMP_pressure;BME280_temperature;BME280_humidity;BME280_pressure;Samples;Min_cycle;Max_cycle;Signal;HPM_P1;HPM_P2
2023/04/30 00:01:31;;;;;;;2.60;2.40;;;16.40;56.30;;;;;;5072538;28;20206;-66
2023/04/30 00:03:57;;;;;;;2.63;2.42;;;16.40;56.30;;;;;;5071713;28;20174;-66
2023/04/30 00:06:22;;;;;;;3.03;2.42;;;16.30;56.30;;;;;;5072488;28;20538;-65
2023/04/30 00:08:48;;;;;;;2.50;2.30;;;16.40;56.30;;;;;;5072465;28;20636;-64
2023/04/30 00:11:13;;;;;;;2.80;2.60;;;16.30;56.30;;;;;;5071364;28;20185;-66
2023/04/30 00:13:40;;;;;;;2.60;2.40;;;16.30;56.30;;;;;;5072408;28;20179;-65
2023/04/30 00:16:06;;;;;;;2.20;2.10;;;16.30;56.30;;;;;;5072226;28;20185;-65
2023/04/30 00:18:32;;;;;;;2.80;2.50;;;16.30;56.30;;;;;;5071436;28;20170;-65
2023/04/30 00:20:57;;;;;;;2.75;2.55;;;16.30;56.30;;;;;;5072259;28;20210;-65
2023/04/30 00:23:23;;;;;;;2.58;2.38;;;16.30;56.30;;;;;;5072126;28;20224;-65
2023/04/30 00:25:48;;;;;;;3.10;2.30;;;16.30;56.30;;;;;;5071537;28;20275;-65
2023/04/30 00:28:14;;;;;;;2.40;2.20;;;16.30;56.30;;;;;;5072075;28;20174;-65
2023/04/30 00:30:39;;;;;;;2.40;2.25;;;16.30;56.30;;;;;;5072331;28;20174;-67
2023/04/30 00:33:05;;;;;;;2.53;2.22;;;16.30;56.20;;;;;;5071281;28;20619;-67
2023/04/30 00:35:30;;;;;;;3.10;2.42;;;16.30;56.30;;;;;;5072323;28;20236;-66
2023/04/30 00:37:56;;;;;;;2.85;2.65;;;16.30;56.40;;;;;;5072446;28;20174;-66
2023/04/30 00:40:21;;;;;;;2.55;2.33;;;16.30;56.30;;;;;;5071292;28;20198;-66
2023/04/30 00:42:47;;;;;;;2.50;2.25;;;16.30;56.40;;;;;;5072303;28;20170;-66
2023/04/30 00:45:13;;;;;;;2.53;2.33;;;16.30;56.40;;;;;;5071987;28;20242;-66
2023/04/30 00:47:38;;;;;;;2.58;2.38;;;16.20;56.30;;;;;;5073497;28;20185;-66
2023/04/30 00:50:05;;;;;;;2.30;2.10;;;16.30;56.50;;;;;;5074733;28;20193;-65
2023/04/30 00:52:30;;;;;;;2.75;2.42;;;16.20;56.40;;;;;;5076550;28;20186;-65
2023/04/30 00:54:56;;;;;;;2.60;2.38;;;16.20;56.30;;;;;;5075392;28;20177;-65
2023/04/30 00:57:21;;;;;;;2.00;1.90;;;16.20;56.40;;;;;;5074658;28;20171;-67
2023/04/30 00:59:47;;;;;;;2.67;2.38;;;16.20;56.40;;;;;;5074803;28;20162;-66
2023/04/30 01:02:13;;;;;;;2.88;2.60;;;16.20;56.30;;;;;;5074973;28;20213;-66
2023/04/30 01:04:38;;;;;;;2.22;2.03;;;16.20;56.30;;;;;;5074376;28;20181;-66
2023/04/30 01:07:04;;;;;;;2.47;2.28;;;16.20;56.30;;;;;;5075228;28;20170;-65
2023/04/30 01:09:30;;;;;;;3.25;2.20;;;16.20;56.30;;;;;;5074364;28;20196;-65
2023/04/30 01:12:08;;;;;;;2.72;2.28;;;16.20;56.40;;;;;;5057914;28;20183;-65
2023/04/30 01:14:39;;;;;;;3.30;2.50;;;16.20;56.40;;;;;;5075176;28;20244;-65
2023/04/30 01:17:16;;;;;;;2.30;2.10;;;16.20;56.40;;;;;;5075112;28;20170;-66
2023/04/30 01:19:45;;;;;;;2.50;2.30;;;16.20;56.40;;;;;;5075659;28;20170;-65
2023/04/30 01:22:27;;;;;;;3.00;2.00;;;16.20;56.40;;;;;;5074455;28;20210;-65
2023/04/30 01:25:05;;;;;;;2.60;2.20;;;16.20;56.30;;;;;;5074521;28;20170;-65
2023/04/30 01:28:13;;;;;;;2.40;2.10;;;16.20;56.40;;;;;;5074405;28;20213;-65
2023/04/30 01:30:39;;;;;;;2.50;1.95;;;16.20;56.40;;;;;;5069763;28;20325;-67
2023/04/30 01:33:05;;;;;;;2.63;2.42;;;16.10;56.30;;;;;;5057532;28;20245;-67
2023/04/30 01:36:02;;;;;;;2.45;2.25;;;16.20;56.30;;;;;;5074627;28;20679;-67
2023/04/30 01:38:55;;;;;;;2.45;2.17;;;16.10;56.40;;;;;;5075091;28;20197;-66
2023/04/30 01:41:49;;;;;;;2.40;2.20;;;16.10;56.40;;;;;;5074978;28;20305;-66
2023/04/30 01:44:21;;;;;;;2.58;2.05;;;16.10;56.40;;;;;;5074055;28;20265;-66
2023/04/30 01:47:00;;;;;;;2.40;2.20;;;16.10;56.30;;;;;;5075096;28;20181;-66
2023/04/30 01:49:31;;;;;;;2.42;1.92;;;16.10;56.30;;;;;;5057570;28;20189;-66
2023/04/30 01:52:06;;;;;;;2.63;2.42;;;16.10;56.30;;;;;;5075040;28;20171;-65
2023/04/30 01:54:43;;;;;;;2.95;2.65;;;16.10;56.20;;;;;;5073884;28;20206;-65
2023/04/30 01:57:15;;;;;;;2.40;2.00;;;16.10;56.20;;;;;;5074016;28;20204;-66
2023/04/30 01:59:40;;;;;;;2.83;2.20;;;16.10;56.40;;;;;;5074828;28;20232;-66
2023/04/30 02:02:06;;;;;;;2.53;2.33;;;16.10;56.20;;;;;;5056578;28;20218;-66
2023/04/30 02:04:32;;;;;;;3.30;2.65;;;16.10;56.30;;;;;;5073845;28;20179;-66
2023/04/30 02:06:58;;;;;;;2.20;2.00;;;16.10;56.20;;;;;;5074825;28;20189;-65
2023/04/30 02:09:23;;;;;;;2.15;2.05;;;16.10;56.20;;;;;;5074583;28;20637;-65
2023/04/30 02:11:49;;;;;;;2.40;2.20;;;16.10;56.30;;;;;;5074069;28;20189;-66
2023/04/30 02:14:15;;;;;;;2.10;2.00;;;16.10;56.60;;;;;;5074221;28;20181;-65
2023/04/30 02:16:40;;;;;;;2.28;2.08;;;16.10;56.40;;;;;;5074618;28;20183;-65
2023/04/30 02:19:06;;;;;;;2.30;2.03;;;16.00;56.40;;;;;;5073465;28;20174;-65
2023/04/30 02:21:32;;;;;;;2.65;2.45;;;16.00;56.40;;;;;;5074301;28;20206;-65
2023/04/30 02:23:57;;;;;;;2.75;2.53;;;16.00;56.20;;;;;;5074580;28;20170;-65
2023/04/30 02:26:23;;;;;;;2.33;2.10;;;16.00;56.30;;;;;;5073188;28;20222;-65
2023/04/30 02:28:48;;;;;;;2.30;2.10;;;16.00;56.30;;;;;;5074421;28;20546;-66
2023/04/30 02:31:14;;;;;;;2.00;1.90;;;16.00;56.40;;;;;;5073838;28;20171;-66
2023/04/30 02:33:39;;;;;;;2.38;2.08;;;16.00;56.50;;;;;;5073311;28;20182;-66
2023/04/30 02:36:05;;;;;;;2.50;2.30;;;16.00;56.40;;;;;;5073690;28;20179;-67
2023/04/30 02:38:30;;;;;;;2.47;2.28;;;16.00;56.50;;;;;;5073572;28;20236;-66
2023/04/30 02:40:56;;;;;;;2.60;2.40;;;16.00;56.40;;;;;;5074335;28;20252;-66
2023/04/30 02:43:21;;;;;;;2.60;2.40;;;16.00;56.40;;;;;;5073670;28;20717;-66
2023/04/30 02:45:47;;;;;;;2.22;2.03;;;16.00;56.40;;;;;;5073299;28;20253;-66
2023/04/30 02:48:12;;;;;;;2.30;2.10;;;16.00;56.50;;;;;;5073662;28;20209;-66
2023/04/30 02:50:38;;;;;;;2.33;2.13;;;16.00;56.50;;;;;;5073861;28;20181;-65
2023/04/30 02:53:03;;;;;;;2.38;2.17;;;16.00;56.50;;;;;;5073170;28;20630;-66
2023/04/30 02:55:29;;;;;;;2.15;1.98;;;16.00;56.60;;;;;;5073888;28;20277;-66
2023/04/30 02:57:55;;;;;;;2.80;2.55;;;15.90;56.50;;;;;;5073802;28;20244;-66
2023/04/30 03:00:21;;;;;;;3.75;2.00;;;15.90;56.50;;;;;;5072579;28;20695;-66
2023/04/30 03:02:46;;;;;;;2.38;2.17;;;15.90;56.50;;;;;;5073552;28;20200;-66
2023/04/30 03:05:12;;;;;;;2.20;1.98;;;15.90;56.50;;;;;;5073251;28;20192;-66
2023/04/30 03:07:38;;;;;;;2.15;2.05;;;16.00;56.50;;;;;;5072997;28;20174;-65
2023/04/30 03:10:04;;;;;;;3.05;2.13;;;15.90;56.50;;;;;;5072831;28;20593;-65
2023/04/30 03:12:30;;;;;;;2.38;2.17;;;15.90;56.60;;;;;;5073308;28;20665;-65
2023/04/30 03:14:55;;;;;;;3.10;1.90;;;15.90;56.60;;;;;;5072740;28;20200;-66
2023/04/30 03:17:22;;;;;;;2.03;1.92;;;15.90;56.60;;;;;;5072983;28;20189;-66
2023/04/30 03:19:47;;;;;;;2.22;2.03;;;15.90;56.60;;;;;;5073169;28;20175;-65
2023/04/30 03:22:13;;;;;;;1.95;1.85;;;15.90;56.60;;;;;;5072120;28;20565;-65
2023/04/30 03:24:38;;;;;;;2.28;1.98;;;15.90;56.50;;;;;;5073261;28;20170;-64
2023/04/30 03:27:04;;;;;;;2.90;1.92;;;15.90;56.60;;;;;;5072954;28;20300;-65
2023/04/30 03:29:30;;;;;;;2.38;2.20;;;15.90;56.50;;;;;;5072485;28;20190;-66
2023/04/30 03:31:55;;;;;;;3.08;2.30;;;15.90;56.60;;;;;;5073229;28;20171;-66
2023/04/30 03:34:21;;;;;;;2.50;2.30;;;15.90;56.60;;;;;;5072774;28;20178;-67
2023/04/30 03:36:46;;;;;;;2.40;2.20;;;15.90;56.60;;;;;;5072100;28;20545;-66
2023/04/30 03:39:12;;;;;;;2.53;2.08;;;15.80;56.50;;;;;;5072623;28;20629;-66
2023/04/30 03:41:37;;;;;;;1.83;1.73;;;15.90;56.60;;;;;;5072999;28;20298;-66
2023/04/30 03:44:03;;;;;;;2.38;2.17;;;15.90;56.60;;;;;;5072122;28;20177;-66
2023/04/30 03:46:28;;;;;;;2.17;2.00;;;15.90;56.60;;;;;;5072557;28;20537;-66
2023/04/30 03:48:54;;;;;;;2.50;2.03;;;15.90;56.70;;;;;;5072001;28;20580;-65
2023/04/30 03:51:20;;;;;;;2.20;2.10;;;15.90;56.70;;;;;;5072342;28;20653;-65
2023/04/30 03:53:45;;;;;;;2.30;2.10;;;15.90;56.70;;;;;;5071827;28;20166;-65
2023/04/30 03:56:11;;;;;;;2.15;1.95;;;15.90;56.70;;;;;;5071857;28;20178;-66
2023/04/30 03:58:36;;;;;;;2.42;2.22;;;15.80;56.60;;;;;;5072741;28;20178;-66
2023/04/30 04:01:02;;;;;;;2.30;2.13;;;15.90;56.60;;;;;;5072554;28;20210;-66
2023/04/30 04:03:28;;;;;;;2.88;2.28;;;15.80;56.60;;;;;;5071709;28;20170;-66
2023/04/30 04:05:53;;;;;;;2.63;2.42;;;15.80;56.60;;;;;;5072494;28;20547;-65
2023/04/30 04:08:19;;;;;;;2.00;1.90;;;15.90;56.60;;;;;;5072202;28;20649;-65
2023/04/30 04:10:45;;;;;;;4.05;2.67;;;15.80;56.60;;;;;;5071997;28;20174;-65
2023/04/30 04:13:10;;;;;;;2.20;1.85;;;15.80;56.50;;;;;;5054578;28;20177;-65
2023/04/30 04:15:36;;;;;;;2.67;2.30;;;15.90;56.70;;;;;;5072495;28;20179;-65
2023/04/30 04:18:02;;;;;;;2.72;2.08;;;15.80;56.60;;;;;;5071791;28;20166;-65
2023/04/30 04:20:28;;;;;;;3.38;2.30;;;15.80;56.60;;;;;;5071763;28;20281;-66
2023/04/30 04:22:54;;;;;;;2.38;2.17;;;15.80;56.60;;;;;;5072560;28;20206;-64
2023/04/30 04:25:23;;;;;;;2.55;2.35;;;15.80;56.60;;;;;;5071355;28;20232;-66
2023/04/30 04:27:52;;;;;;;2.53;2.33;;;15.80;56.60;;;;;;5072401;28;20664;-65
2023/04/30 04:30:18;;;;;;;2.08;1.98;;;15.80;56.60;;;;;;5072219;28;20170;-66
2023/04/30 04:32:49;;;;;;;2.60;2.20;;;15.80;56.60;;;;;;5071520;28;20231;-66
2023/04/30 04:35:15;;;;;;;2.38;1.88;;;15.80;56.60;;;;;;5072338;28;20174;-66
2023/04/30 04:37:41;;;;;;;2.50;2.30;;;15.80;56.60;;;;;;5072441;28;20189;-66
2023/04/30 04:40:07;;;;;;;2.45;2.25;;;15.80;56.70;;;;;;5071270;28;20174;-66
2023/04/30 04:42:33;;;;;;;2.38;2.17;;;15.80;56.60;;;;;;5072284;28;20182;-66
2023/04/30 04:44:58;;;;;;;2.63;1.98;;;15.80;56.70;;;;;;5071729;28;20254;-66
2023/04/30 04:47:24;;;;;;;2.45;2.25;;;15.80;56.60;;;;;;5071815;28;20804;-65
2023/04/30 04:49:50;;;;;;;3.03;2.13;;;15.80;56.70;;;;;;5072377;28;20169;-66
2023/04/30 04:52:15;;;;;;;2.58;2.33;;;15.80;56.60;;;;;;5071420;28;20174;-65
2023/04/30 04:54:41;;;;;;;2.45;2.10;;;15.80;56.60;;;;;;5072230;28;20181;-66
2023/04/30 04:57:06;;;;;;;2.47;2.28;;;15.80;56.70;;;;;;5071974;28;20170;-66
2023/04/30 04:59:32;;;;;;;2.40;2.20;;;15.80;56.60;;;;;;5071255;28;20182;-66
2023/04/30 05:01:57;;;;;;;2.45;2.25;;;15.80;56.60;;;;;;5071925;28;20206;-66
2023/04/30 05:04:23;;;;;;;2.35;2.15;;;15.80;56.50;;;;;;5071958;28;20174;-66
2023/04/30 05:06:48;;;;;;;2.20;2.10;;;15.80;56.60;;;;;;5071199;28;20174;-65
2023/04/30 05:09:14;;;;;;;2.22;2.03;;;15.80;56.50;;;;;;5071800;28;20178;-65
2023/04/30 05:11:40;;;;;;;2.20;2.10;;;15.80;56.60;;;;;;5072175;28;20598;-64
2023/04/30 05:14:06;;;;;;;2.97;2.45;;;15.80;56.60;;;;;;5071063;28;20575;-65
2023/04/30 05:16:31;;;;;;;3.13;2.53;;;15.80;56.60;;;;;;5071770;28;20177;-65
2023/04/30 05:18:57;;;;;;;2.28;2.08;;;15.80;56.60;;;;;;5072142;28;20197;-65
2023/04/30 05:21:22;;;;;;;2.67;2.28;;;15.80;56.60;;;;;;5070879;28;20202;-65
2023/04/30 05:23:48;;;;;;;2.65;2.20;;;15.80;56.50;;;;;;5071783;28;20171;-66
2023/04/30 05:26:13;;;;;;;2.38;2.17;;;15.80;56.50;;;;;;5071261;28;20317;-65
2023/04/30 05:28:39;;;;;;;2.55;2.33;;;15.80;56.50;;;;;;5071171;28;20170;-64
2023/04/30 05:31:05;;;;;;;2.65;2.40;;;15.80;56.50;;;;;;5071490;28;20184;-66
2023/04/30 05:33:30;;;;;;;2.50;2.30;;;15.80;56.50;;;;;;5073599;28;20193;-66
2023/04/30 05:35:56;;;;;;;2.35;2.10;;;15.80;56.50;;;;;;5074789;28;20166;-66
2023/04/30 05:38:21;;;;;;;2.30;2.10;;;15.80;56.50;;;;;;5074930;28;20605;-66
2023/04/30 05:40:47;;;;;;;4.03;2.40;;;15.80;56.50;;;;;;5075296;28;20732;-66
2023/04/30 05:43:12;;;;;;;2.22;2.10;;;15.80;56.50;;;;;;5074320;28;20174;-66
2023/04/30 05:45:38;;;;;;;2.90;2.20;;;15.80;56.50;;;;;;5075288;28;20174;-65
2023/04/30 05:48:04;;;;;;;3.83;2.25;;;15.80;56.50;;;;;;5074997;28;20170;-66
2023/04/30 05:50:29;;;;;;;2.72;2.10;;;15.80;56.40;;;;;;5074079;28;20177;-65
2023/04/30 05:52:55;;;;;;;2.22;2.03;;;15.80;56.40;;;;;;5075207;28;20174;-65
2023/04/30 05:55:20;;;;;;;3.03;2.45;;;15.90;57.10;;;;;;5073910;28;20706;-66
2023/04/30 05:57:46;;;;;;;2.42;1.92;;;15.90;56.40;;;;;;5075029;28;20701;-66
2023/04/30 06:00:12;;;;;;;2.60;2.35;;;15.90;56.40;;;;;;5074572;28;20261;-66
2023/04/30 06:02:38;;;;;;;2.22;2.03;;;16.00;56.30;;;;;;5074319;28;20175;-66
2023/04/30 06:05:03;;;;;;;2.20;2.00;;;16.10;56.20;;;;;;5074823;28;20189;-66
2023/04/30 06:07:29;;;;;;;2.13;1.92;;;16.10;56.00;;;;;;5074312;28;20554;-65
2023/04/30 06:09:55;;;;;;;1.95;1.77;;;16.20;55.90;;;;;;5074145;28;20174;-65
2023/04/30 06:12:20;;;;;;;2.28;1.90;;;16.40;55.70;;;;;;5074355;28;20216;-66
2023/04/30 06:14:46;;;;;;;2.20;1.90;;;16.60;55.60;;;;;;5074623;28;20243;-66
2023/04/30 06:17:12;;;;;;;2.60;1.88;;;16.80;55.30;;;;;;5073428;28;20577;-65
2023/04/30 06:19:38;;;;;;;1.92;1.50;;;17.00;55.20;;;;;;5074345;28;20171;-66
2023/04/30 06:22:03;;;;;;;1.70;1.60;;;17.20;54.90;;;;;;5074663;28;20268;-65
2023/04/30 06:24:29;;;;;;;2.13;1.70;;;17.30;54.70;;;;;;5073467;28;20668;-65
2023/04/30 06:26:55;;;;;;;1.88;1.77;;;17.40;54.50;;;;;;5074317;28;20267;-65
2023/04/30 06:29:23;;;;;;;1.50;1.40;;;17.50;54.30;;;;;;5074250;28;20270;-67
2023/04/30 06:31:49;;;;;;;1.50;1.40;;;17.60;54.00;;;;;;5073846;28;20217;-67
2023/04/30 06:34:15;;;;;;;1.70;1.60;;;17.80;53.80;;;;;;5074099;28;20171;-66
2023/04/30 06:36:40;;;;;;;3.50;1.60;;;17.90;53.60;;;;;;5074337;28;20667;-66
2023/04/30 06:39:06;;;;;;;1.60;1.50;;;18.00;53.40;;;;;;5073028;28;20655;-66
2023/04/30 06:41:31;;;;;;;1.40;1.30;;;18.00;53.30;;;;;;5073932;28;20231;-66
2023/04/30 06:43:57;;;;;;;1.90;1.80;;;18.10;53.20;;;;;;5073895;28;20258;-65
2023/04/30 06:46:22;;;;;;;1.60;1.50;;;18.00;53.30;;;;;;5072907;28;20587;-66
2023/04/30 06:48:48;;;;;;;1.70;1.60;;;17.90;53.40;;;;;;5073906;28;20216;-65
2023/04/30 06:51:13;;;;;;;1.65;1.55;;;17.90;53.60;;;;;;5073608;28;20174;-65
2023/04/30 06:53:39;;;;;;;1.50;1.40;;;17.80;53.70;;;;;;5073108;28;20174;-66
2023/04/30 06:56:05;;;;;;;1.85;1.52;;;17.80;53.80;;;;;;5073454;28;20178;-66
2023/04/30 06:58:30;;;;;;;2.22;1.92;;;17.80;53.90;;;;;;5072394;28;20178;-67
2023/04/30 07:00:57;;;;;;;2.38;1.95;;;17.70;54.00;;;;;;5072930;28;20297;-67
2023/04/30 07:03:22;;;;;;;1.60;1.50;;;17.70;54.20;;;;;;5073795;28;20257;-66
2023/04/30 07:05:48;;;;;;;1.48;1.38;;;17.60;54.20;;;;;;5073387;28;20265;-67
2023/04/30 07:08:14;;;;;;;1.40;1.30;;;17.50;54.40;;;;;;5072278;28;20249;-65
2023/04/30 07:10:39;;;;;;;1.90;1.58;;;17.40;54.40;;;;;;5073712;28;20232;-66
2023/04/30 07:13:06;;;;;;;1.70;1.60;;;17.40;54.60;;;;;;5072931;28;20174;-66
2023/04/30 07:15:32;;;;;;;1.73;1.63;;;17.40;54.70;;;;;;5073879;28;20228;-66
2023/04/30 07:17:57;;;;;;;1.60;1.45;;;17.30;54.80;;;;;;5073878;28;20530;-65
2023/04/30 07:20:23;;;;;;;1.60;1.50;;;17.30;54.90;;;;;;5072468;28;20574;-66
2023/04/30 07:22:48;;;;;;;2.13;1.42;;;17.30;55.00;;;;;;5073595;28;20189;-65
2023/04/30 07:25:14;;;;;;;1.90;1.40;;;17.30;55.10;;;;;;5073287;28;20218;-66
2023/04/30 07:27:40;;;;;;;1.52;1.33;;;17.20;55.10;;;;;;5072710;28;20179;-66
2023/04/30 07:30:07;;;;;;;1.88;1.50;;;17.30;55.10;;;;;;5073392;28;20179;-67
2023/04/30 07:32:34;;;;;;;3.00;1.55;;;17.40;55.00;;;;;;5073526;28;20166;-66
2023/04/30 07:34:59;;;;;;;1.77;1.42;;;17.40;55.00;;;;;;5072752;28;20232;-67
2023/04/30 07:37:25;;;;;;;1.58;1.48;;;17.40;54.90;;;;;;5073201;28;20199;-66
2023/04/30 07:39:51;;;;;;;1.55;1.45;;;17.40;55.60;;;;;;5073614;28;20248;-66
2023/04/30 07:42:16;;;;;;;1.48;1.38;;;17.40;55.00;;;;;;5072117;28;20255;-66
2023/04/30 07:44:42;;;;;;;1.60;1.30;;;17.40;55.00;;;;;;5073414;28;20202;-66
2023/04/30 07:47:08;;;;;;;1.95;1.75;;;17.40;55.10;;;;;;5073123;28;20752;-66
2023/04/30 07:49:34;;;;;;;1.60;1.30;;;17.30;55.10;;;;;;5072637;28;20170;-65
2023/04/30 07:52:00;;;;;;;1.77;1.67;;;17.30;55.20;;;;;;5073239;28;20669;-65
2023/04/30 07:54:26;;;;;;;2.00;1.60;;;17.30;55.20;;;;;;5072892;28;20543;-65
2023/04/30 07:56:51;;;;;;;1.52;1.42;;;17.30;55.30;;;;;;5071861;28;20213;-66
2023/04/30 07:59:17;;;;;;;1.88;1.65;;;17.30;55.40;;;;;;5072633;28;20653;-67
2023/04/30 08:01:42;;;;;;;1.50;1.40;;;17.30;55.40;;;;;;5073151;28;20210;-66
2023/04/30 08:04:08;;;;;;;1.85;1.40;;;17.20;55.30;;;;;;5072254;28;20170;-66
2023/04/30 08:06:33;;;;;;;1.63;1.52;;;17.30;55.40;;;;;;5072967;28;20599;-65
2023/04/30 08:08:59;;;;;;;1.40;1.30;;;17.30;55.40;;;;;;5072361;28;20174;-65
2023/04/30 08:11:25;;;;;;;1.83;1.60;;;17.30;55.50;;;;;;5072454;28;20178;-65
2023/04/30 08:13:51;;;;;;;2.00;1.70;;;17.30;55.50;;;;;;5072764;28;20638;-65
2023/04/30 08:16:16;;;;;;;1.85;1.52;;;17.30;55.50;;;;;;5071935;28;20185;-65
2023/04/30 08:18:45;;;;;;;1.67;1.55;;;17.30;55.60;;;;;;5073033;28;20170;-65
2023/04/30 08:21:11;;;;;;;1.98;1.58;;;17.30;55.60;;;;;;5072425;28;20214;-66
2023/04/30 08:23:37;;;;;;;1.58;1.48;;;17.30;55.60;;;;;;5072023;28;20181;-65
2023/04/30 08:26:03;;;;;;;1.65;1.55;;;17.30;55.60;;;;;;5072491;28;20230;-65
2023/04/30 08:28:28;;;;;;;1.85;1.65;;;17.30;55.60;;;;;;5072369;28;20185;-66
2023/04/30 08:30:54;;;;;;;1.60;1.50;;;17.30;55.60;;;;;;5072218;28;20174;-66
2023/04/30 08:33:19;;;;;;;2.65;1.50;;;17.30;55.60;;;;;;5072573;28;20190;-67
2023/04/30 08:35:45;;;;;;;1.67;1.58;;;17.30;55.60;;;;;;5072754;28;20531;-67
2023/04/30 08:38:10;;;;;;;1.40;1.35;;;17.30;55.60;;;;;;5071640;28;20256;-66
2023/04/30 08:40:36;;;;;;;1.48;1.30;;;17.30;55.60;;;;;;5072497;28;20199;-66
2023/04/30 08:43:06;;;;;;;2.92;2.00;;;17.30;55.60;;;;;;5072761;28;20171;-66
2023/04/30 08:45:32;;;;;;;1.42;1.33;;;17.30;55.60;;;;;;5071920;28;20178;-66
2023/04/30 08:47:58;;;;;;;2.28;1.92;;;17.30;55.60;;;;;;5071640;28;20189;-65
2023/04/30 08:50:24;;;;;;;1.60;1.50;;;17.40;55.60;;;;;;5072306;28;20463;-65
2023/04/30 08:52:50;;;;;;;1.90;1.70;;;17.40;55.60;;;;;;5071870;28;20261;-65
2023/04/30 08:55:15;;;;;;;1.60;1.50;;;17.30;55.60;;;;;;5072281;28;20209;-66
2023/04/30 08:57:41;;;;;;;1.42;1.33;;;17.40;55.60;;;;;;5072654;28;20531;-66
2023/04/30 09:00:07;;;;;;;1.60;1.50;;;17.40;55.60;;;;;;5071759;28;20768;-67
2023/04/30 09:02:33;;;;;;;1.63;1.52;;;17.40;55.50;;;;;;5072265;28;20700;-66
2023/04/30 09:04:58;;;;;;;1.67;1.50;;;17.40;55.50;;;;;;5072618;28;20170;-65
2023/04/30 09:07:26;;;;;;;2.47;1.85;;;17.40;55.50;;;;;;5071642;28;20200;-66
2023/04/30 09:09:52;;;;;;;1.60;1.50;;;17.50;55.50;;;;;;5074984;28;20249;-65
2023/04/30 09:12:18;;;;;;;1.70;1.40;;;17.50;55.50;;;;;;5075130;28;20261;-65
2023/04/30 09:15:01;;;;;;;2.22;1.67;;;17.50;55.60;;;;;;5076199;28;20179;-66
2023/04/30 09:17:26;;;;;;;1.60;1.50;;;17.50;55.60;;;;;;5075615;28;20649;-65
2023/04/30 09:19:52;;;;;;;2.08;1.48;;;17.50;55.50;;;;;;5075141;28;20174;-66
2023/04/30 09:22:19;;;;;;;1.70;1.60;;;17.50;55.50;;;;;;5075582;28;20202;-65
2023/04/30 09:24:46;;;;;;;1.70;1.60;;;17.50;55.50;;;;;;5075914;28;20244;-65
2023/04/30 09:27:18;;;;;;;1.52;1.42;;;17.50;55.50;;;;;;5074809;28;20702;-65
2023/04/30 09:29:45;;;;;;;1.98;1.40;;;17.50;55.50;;;;;;5076025;28;20178;-66
2023/04/30 09:32:10;;;;;;;1.75;1.65;;;17.60;55.50;;;;;;5075632;28;20187;-67
2023/04/30 09:34:36;;;;;;;1.80;1.70;;;17.60;55.50;;;;;;5074933;28;20197;-66
2023/04/30 09:37:03;;;;;;;1.50;1.40;;;17.50;55.40;;;;;;5075576;28;20190;-66
2023/04/30 09:39:28;;;;;;;3.05;1.40;;;17.60;55.50;;;;;;5075269;28;20537;-66
2023/04/30 09:42:08;;;;;;;1.60;1.50;;;17.60;55.50;;;;;;5073818;28;20216;-66
2023/04/30 09:44:36;;;;;;;1.63;1.40;;;17.60;55.50;;;;;;5074590;28;20251;-66
2023/04/30 09:47:02;;;;;;;1.55;1.45;;;17.60;55.40;;;;;;5075486;28;20641;-65
2023/04/30 09:49:27;;;;;;;1.73;1.63;;;17.60;55.50;;;;;;5074363;28;20220;-65
2023/04/30 09:51:57;;;;;;;1.38;1.27;;;17.70;55.50;;;;;;5075577;28;20220;-65
2023/04/30 09:54:28;;;;;;;1.67;1.58;;;17.60;55.50;;;;;;5075233;28;20175;-65
2023/04/30 09:56:55;;;;;;;1.80;1.60;;;17.70;55.60;;;;;;5075326;28;20641;-66
2023/04/30 09:59:21;;;;;;;1.65;1.55;;;17.70;56.10;;;;;;5075080;28;20178;-66
2023/04/30 10:01:47;;;;;;;2.10;1.42;;;17.70;55.40;;;;;;5074483;28;20345;-67
2023/04/30 10:04:12;;;;;;;1.27;1.23;;;17.70;55.40;;;;;;5057048;28;20599;-66
2023/04/30 10:06:38;;;;;;;1.77;1.67;;;17.70;55.40;;;;;;5075397;28;20202;-65
2023/04/30 10:09:04;;;;;;;1.58;1.48;;;17.70;55.40;;;;;;5056696;28;20539;-65
2023/04/30 10:11:29;;;;;;;1.73;1.63;;;17.70;55.40;;;;;;5073735;28;20179;-65
2023/04/30 10:14:14;;;;;;;1.35;1.25;;;17.70;55.40;;;;;;5075048;28;20174;-66
2023/04/30 10:16:43;;;;;;;2.15;1.30;;;17.80;55.40;;;;;;5073073;28;20170;-66
2023/04/30 10:19:14;;;;;;;1.50;1.40;;;17.80;55.40;;;;;;5056430;28;20709;-65
2023/04/30 10:21:41;;;;;;;1.50;1.40;;;17.80;55.40;;;;;;5073677;28;20268;-65
2023/04/30 10:24:08;;;;;;;1.25;1.15;;;17.80;55.30;;;;;;5073896;28;20181;-65
2023/04/30 10:26:34;;;;;;;1.60;1.38;;;17.80;55.30;;;;;;5074697;28;20225;-65
2023/04/30 10:29:00;;;;;;;1.27;1.20;;;17.80;55.30;;;;;;5073507;28;20170;-66
2023/04/30 10:31:25;;;;;;;1.52;1.42;;;17.80;55.30;;;;;;5072769;28;20190;-67
2023/04/30 10:34:03;;;;;;;1.33;1.23;;;17.80;55.30;;;;;;5074575;28;20174;-67
2023/04/30 10:36:43;;;;;;;1.30;1.20;;;17.90;55.30;;;;;;5073333;28;20261;-66
2023/04/30 10:39:09;;;;;;;1.50;1.40;;;17.90;55.20;;;;;;5073293;28;20166;-66
2023/04/30 10:41:35;;;;;;;1.95;1.80;;;17.90;55.20;;;;;;5074402;28;20206;-66
2023/04/30 10:44:01;;;;;;;1.10;1.10;;;17.90;55.20;;;;;;5073922;28;20177;-66
2023/04/30 10:46:27;;;;;;;1.50;1.40;;;17.90;55.20;;;;;;5074226;28;20185;-66
2023/04/30 10:48:54;;;;;;;2.33;1.50;;;17.90;55.20;;;;;;5073267;28;20175;-65
2023/04/30 10:51:20;;;;;;;1.70;1.40;;;17.90;55.20;;;;;;5072341;28;20182;-66
2023/04/30 10:53:47;;;;;;;1.60;1.48;;;18.00;55.20;;;;;;5074291;28;20184;-66
2023/04/30 10:56:13;;;;;;;1.35;1.25;;;18.00;55.20;;;;;;5072630;28;20178;-66
2023/04/30 10:58:39;;;;;;;1.42;1.33;;;17.90;55.10;;;;;;5073620;28;20175;-66
2023/04/30 11:01:08;;;;;;;2.30;1.48;;;18.00;55.10;;;;;;5073801;28;20205;-66
2023/04/30 11:03:34;;;;;;;2.42;1.50;;;18.00;55.20;;;;;;5074168;28;20181;-66
2023/04/30 11:06:02;;;;;;;1.88;1.30;;;18.00;55.10;;;;;;5073366;28;20175;-65
2023/04/30 11:08:35;;;;;;;1.52;1.00;;;18.00;55.10;;;;;;5073698;28;20257;-66
2023/04/30 11:11:00;;;;;;;1.58;1.48;;;18.00;55.10;;;;;;5072661;28;20216;-66
2023/04/30 11:13:26;;;;;;;1.40;1.27;;;18.00;55.10;;;;;;5073034;28;20255;-66
2023/04/30 11:15:52;;;;;;;1.48;1.38;;;18.00;55.00;;;;;;5073806;28;20175;-66
2023/04/30 11:18:17;;;;;;;1.90;1.70;;;18.00;55.00;;;;;;5072343;28;20245;-66
2023/04/30 11:20:52;;;;;;;1.60;1.50;;;18.00;55.00;;;;;;5071725;28;20545;-66
2023/04/30 11:23:22;;;;;;;1.75;1.33;;;18.00;55.00;;;;;;5073261;28;20197;-65
2023/04/30 11:25:48;;;;;;;1.20;1.10;;;18.10;55.00;;;;;;5073616;28;20278;-65
2023/04/30 11:28:22;;;;;;;1.63;1.50;;;18.10;55.00;;;;;;5072771;28;20174;-65
2023/04/30 11:30:54;;;;;;;1.58;1.20;;;18.10;55.00;;;;;;5072823;28;20191;-67
2023/04/30 11:33:19;;;;;;;1.25;1.17;;;18.10;55.00;;;;;;5072554;28;20177;-67
2023/04/30 11:35:45;;;;;;;1.63;1.35;;;18.10;55.00;;;;;;5073358;28;20261;-66
2023/04/30 11:38:13;;;;;;;1.30;1.20;;;18.10;54.90;;;;;;5073340;28;20665;-66
2023/04/30 11:40:39;;;;;;;1.40;1.30;;;18.20;55.00;;;;;;5054898;28;20166;-66
2023/04/30 11:43:05;;;;;;;2.88;1.40;;;18.10;54.90;;;;;;5072878;28;20193;-67
2023/04/30 11:45:30;;;;;;;1.30;1.20;;;18.20;54.90;;;;;;5073259;28;20186;-66
2023/04/30 11:47:56;;;;;;;1.20;1.10;;;18.10;54.80;;;;;;5071131;28;20174;-66
2023/04/30 11:50:28;;;;;;;1.17;1.08;;;18.20;54.80;;;;;;5072897;28;20216;-65
2023/04/30 11:52:55;;;;;;;1.80;1.38;;;18.20;54.80;;;;;;5073286;28;20221;-65
2023/04/30 11:55:22;;;;;;;1.52;1.42;;;18.20;54.80;;;;;;5072285;28;20217;-66
2023/04/30 11:57:53;;;;;;;1.45;1.35;;;18.20;54.80;;;;;;5073176;28;20186;-66
2023/04/30 12:00:19;;;;;;;1.10;1.10;;;18.20;54.80;;;;;;5072984;28;20206;-67
2023/04/30 12:02:47;;;;;;;1.60;1.50;;;18.20;54.80;;;;;;5072332;28;20251;-66
2023/04/30 12:05:16;;;;;;;1.80;1.40;;;18.20;54.70;;;;;;5072660;28;20641;-66
2023/04/30 12:07:46;;;;;;;1.75;1.27;;;18.30;54.70;;;;;;5073137;28;20183;-65
2023/04/30 12:10:11;;;;;;;1.88;1.67;;;18.20;54.70;;;;;;5072077;28;20228;-66
2023/04/30 12:12:37;;;;;;;1.48;1.30;;;18.30;54.70;;;;;;5073047;28;20205;-66
2023/04/30 12:15:16;;;;;;;1.38;1.27;;;18.30;54.70;;;;;;5072937;28;20548;-66
2023/04/30 12:17:42;;;;;;;4.55;2.05;;;18.30;54.60;;;;;;5072756;28;20174;-67
2023/04/30 12:20:08;;;;;;;1.55;1.45;;;18.40;54.60;;;;;;5072668;28;20178;-66
2023/04/30 12:22:35;;;;;;;1.95;1.50;;;18.40;54.60;;;;;;5072044;28;20225;-65
2023/04/30 12:25:04;;;;;;;1.40;1.30;;;18.40;54.60;;;;;;5072665;28;20209;-66
2023/04/30 12:27:30;;;;;;;1.50;1.40;;;18.40;54.60;;;;;;5071605;28;20185;-66
2023/04/30 12:29:56;;;;;;;2.08;1.60;;;18.40;54.60;;;;;;5072011;28;20182;-67
2023/04/30 12:32:21;;;;;;;1.83;1.38;;;18.40;54.60;;;;;;5071392;28;20181;-66
2023/04/30 12:34:47;;;;;;;1.55;1.40;;;18.40;54.60;;;;;;5071475;28;20176;-68
2023/04/30 12:37:16;;;;;;;1.95;1.55;;;18.40;54.50;;;;;;5071754;28;20270;-67
2023/04/30 12:39:42;;;;;;;1.20;1.10;;;18.40;54.50;;;;;;5072868;28;20548;-66
2023/04/30 12:42:07;;;;;;;1.77;1.10;;;18.40;55.10;;;;;;5073513;28;20221;-66
2023/04/30 12:44:40;;;;;;;1.50;1.40;;;18.40;54.50;;;;;;5076100;28;20186;-66
2023/04/30 12:47:06;;;;;;;1.50;1.40;;;18.50;54.40;;;;;;5075430;28;20178;-66